createdAt,value
2018-08-08T00:02:24.297Z,24.63
2018-08-08T00:04:52.741Z,24.55
2018-08-08T00:07:21.221Z,24.56
2018-08-08T00:09:49.741Z,24.67
2018-08-08T00:12:18.273Z,24.72
2018-08-08T00:14:46.790Z,24.83
2018-08-08T00:17:15.225Z,24.89
2018-08-08T00:19:43.730Z,24.92
2018-08-08T00:22:12.189Z,24.98
2018-08-08T00:24:40.663Z,24.95
2018-08-08T00:27:09.167Z,25.01
2018-08-08T00:29:37.694Z,25.06
2018-08-08T00:32:06.165Z,25.07
2018-08-08T00:34:34.632Z,25.07
2018-08-08T00:37:03.113Z,25.08
2018-08-08T00:39:31.574Z,25.11
2018-08-08T00:42:00.058Z,25.16
2018-08-08T00:44:28.530Z,25.15
2018-08-08T00:46:56.964Z,25.19
2018-08-08T00:49:25.479Z,25.23
2018-08-08T00:51:53.890Z,25.31
2018-08-08T00:54:22.325Z,25.18
2018-08-08T00:56:50.787Z,24.53
2018-08-08T00:59:19.235Z,24.28
2018-08-08T01:01:50.490Z,26.05
2018-08-08T01:04:18.988Z,26.54
2018-08-08T01:06:47.456Z,26.75
2018-08-08T01:09:15.963Z,26.77
2018-08-08T01:11:44.499Z,26.99
2018-08-08T01:14:12.945Z,27.28
2018-08-08T01:16:41.448Z,27.44
2018-08-08T01:19:09.929Z,27.61
2018-08-08T01:21:38.400Z,27.65
2018-08-08T01:24:06.881Z,27.84
2018-08-08T01:26:35.312Z,27.89
2018-08-08T01:29:03.792Z,27.83
2018-08-08T01:31:32.298Z,27.72
2018-08-08T01:34:00.769Z,27.66
2018-08-08T01:36:29.291Z,27.66
2018-08-08T01:38:57.727Z,27.57
2018-08-08T01:41:26.255Z,27.47
2018-08-08T01:43:54.742Z,27.44
2018-08-08T01:46:23.233Z,27.39
2018-08-08T01:48:51.693Z,27.27
2018-08-08T01:51:20.173Z,27.15
2018-08-08T01:53:48.710Z,27.03
2018-08-08T01:56:17.153Z,26.90
2018-08-08T01:58:45.574Z,26.82
2018-08-08T02:01:14.078Z,26.78
2018-08-08T02:03:42.509Z,26.73
2018-08-08T02:06:11.018Z,26.74
2018-08-08T02:08:39.477Z,26.57
2018-08-08T02:11:08.067Z,26.22
2018-08-08T02:13:36.516Z,26.07
2018-08-08T02:16:05.095Z,25.84
2018-08-08T02:18:33.617Z,25.63
2018-08-08T02:21:02.162Z,25.43
2018-08-08T02:23:30.624Z,25.30
2018-08-08T02:25:59.123Z,25.09
2018-08-08T02:28:27.554Z,24.85
2018-08-08T02:30:55.990Z,24.72
2018-08-08T02:33:24.432Z,24.59
2018-08-08T02:35:52.893Z,24.00
2018-08-08T02:38:21.337Z,24.00
2018-08-08T02:40:49.754Z,23.96
2018-08-08T02:43:18.290Z,23.82
2018-08-08T02:45:46.742Z,23.78
2018-08-08T02:48:15.429Z,23.79
2018-08-08T02:50:43.862Z,23.63
2018-08-08T02:53:12.446Z,23.58
2018-08-08T02:55:40.874Z,23.49
2018-08-08T02:58:09.330Z,23.36
2018-08-08T03:00:37.795Z,23.31
2018-08-08T03:03:06.342Z,23.12
2018-08-08T03:05:34.798Z,22.83
2018-08-08T03:08:03.408Z,22.82
2018-08-08T03:10:31.871Z,22.80
2018-08-08T03:13:00.370Z,23.07
2018-08-08T03:15:28.817Z,23.33
2018-08-08T03:17:57.284Z,23.46
2018-08-08T03:20:25.709Z,23.46
2018-08-08T03:22:54.153Z,23.67
2018-08-08T03:25:22.615Z,23.57
2018-08-08T03:27:51.117Z,23.68
2018-08-08T03:30:21.505Z,23.74
2018-08-08T03:32:50.014Z,23.63
2018-08-08T03:35:19.121Z,23.77
2018-08-08T03:37:47.688Z,23.77
2018-08-08T03:40:17.125Z,23.69
2018-08-08T03:42:45.914Z,23.63
2018-08-08T03:45:15.895Z,23.56
2018-08-08T03:47:44.373Z,23.74
2018-08-08T03:50:13.473Z,24.21
2018-08-08T03:52:43.161Z,24.31
2018-08-08T03:55:12.408Z,24.32
2018-08-08T03:57:41.173Z,24.26
2018-08-08T04:00:16.109Z,23.79
2018-08-08T04:02:44.687Z,22.48
2018-08-08T04:05:13.158Z,21.87
2018-08-08T04:07:41.671Z,21.54
2018-08-08T04:10:10.704Z,21.34
2018-08-08T04:12:39.183Z,21.10
2018-08-08T04:15:12.997Z,20.87
2018-08-08T04:17:41.460Z,20.84
2018-08-08T04:20:10.565Z,20.84
2018-08-08T04:22:39.109Z,20.84
2018-08-08T04:25:09.473Z,20.78
2018-08-08T04:27:38.462Z,20.71
2018-08-08T04:30:09.217Z,20.62
2018-08-08T04:32:38.242Z,20.50
2018-08-08T04:35:07.102Z,20.34
2018-08-08T04:37:35.681Z,20.37
2018-08-08T04:40:05.267Z,20.34
2018-08-08T04:42:33.808Z,20.33
2018-08-08T04:45:02.388Z,20.30
2018-08-08T04:47:30.891Z,20.23
2018-08-08T04:49:59.412Z,20.17
2018-08-08T04:52:27.850Z,20.15
2018-08-08T04:54:56.338Z,20.09
2018-08-08T04:57:24.944Z,20.08
2018-08-08T04:59:53.408Z,20.05
2018-08-08T05:02:21.876Z,20.03
2018-08-08T05:04:50.359Z,20.00
2018-08-08T05:07:18.782Z,19.98
2018-08-08T05:09:47.265Z,19.93
2018-08-08T05:12:15.794Z,19.92
2018-08-08T05:14:44.247Z,19.97
2018-08-08T05:17:12.744Z,19.96
2018-08-08T05:19:41.277Z,19.95
2018-08-08T05:22:09.843Z,19.97
2018-08-08T05:24:38.351Z,20.03
2018-08-08T05:27:06.873Z,20.04
2018-08-08T05:29:35.388Z,20.01
2018-08-08T05:32:03.908Z,20.10
2018-08-08T05:34:32.413Z,20.16
2018-08-08T05:37:00.883Z,20.17
2018-08-08T05:39:29.413Z,20.23
2018-08-08T05:41:57.861Z,20.23
2018-08-08T05:44:26.432Z,20.32
2018-08-08T05:46:54.927Z,20.31
2018-08-08T05:49:23.465Z,20.32
2018-08-08T05:51:51.957Z,20.34
2018-08-08T05:59:04.238Z,20.41
2018-08-08T06:01:32.738Z,20.54
2018-08-08T06:04:01.249Z,20.71
2018-08-08T06:06:31.674Z,20.78
2018-08-08T06:09:01.250Z,20.86
2018-08-08T06:11:30.183Z,20.98
2018-08-08T06:13:58.709Z,21.06
2018-08-08T06:16:27.314Z,21.17
2018-08-08T06:18:56.013Z,21.26
2018-08-08T06:21:24.610Z,21.38
2018-08-08T06:23:53.234Z,21.43
2018-08-08T06:28:48.631Z,21.69
2018-08-08T06:31:17.121Z,21.80
2018-08-08T06:33:45.644Z,21.89
2018-08-08T06:36:14.169Z,21.93
2018-08-08T06:38:42.962Z,22.01
2018-08-08T06:41:11.500Z,22.03
2018-08-08T06:43:40.452Z,22.11
2018-08-08T06:46:09.366Z,22.16
2018-08-08T06:48:38.201Z,22.19
2018-08-08T06:51:07.001Z,22.33
2018-08-08T06:53:35.846Z,22.45
2018-08-08T06:56:04.337Z,22.62
2018-08-08T06:58:33.125Z,22.86
2018-08-08T07:01:01.666Z,23.11
2018-08-08T07:03:30.560Z,23.53
2018-08-08T07:05:59.032Z,23.82
2018-08-08T07:08:27.445Z,24.18
2018-08-08T07:10:55.898Z,24.39
2018-08-08T07:13:24.354Z,24.66
2018-08-08T07:15:52.750Z,24.69
2018-08-08T07:18:21.205Z,24.65
2018-08-08T07:20:49.670Z,24.68
2018-08-08T07:23:18.183Z,24.86
2018-08-08T07:25:46.672Z,25.08
2018-08-08T07:28:15.633Z,24.94
2018-08-08T07:30:44.027Z,24.67
2018-08-08T07:33:12.545Z,25.03
2018-08-08T07:35:41.027Z,24.71
2018-08-08T07:38:09.936Z,24.97
2018-08-08T07:40:38.482Z,24.75
2018-08-08T07:43:07.471Z,24.73
2018-08-08T07:45:36.200Z,24.91
2018-08-08T07:48:04.689Z,24.55
2018-08-08T07:50:33.230Z,24.72
2018-08-08T07:53:01.746Z,24.54
2018-08-08T07:55:30.200Z,24.75
2018-08-08T07:57:59.305Z,24.71
2018-08-08T08:00:28.888Z,24.70
2018-08-08T08:02:58.340Z,24.38
2018-08-08T08:05:26.805Z,24.38
2018-08-08T08:07:55.930Z,24.32
2018-08-08T08:10:24.429Z,24.80
2018-08-08T08:12:52.909Z,24.91
2018-08-08T08:15:21.318Z,25.29
2018-08-08T08:17:49.782Z,25.15
2018-08-08T08:20:19.167Z,25.05
2018-08-08T08:22:48.809Z,24.81
2018-08-08T08:25:17.353Z,25.09
2018-08-08T08:27:45.829Z,25.25
2018-08-08T08:30:15.474Z,25.42
2018-08-08T08:32:44.605Z,24.75
2018-08-08T08:35:13.052Z,24.82
2018-08-08T08:37:41.558Z,24.96
2018-08-08T08:40:10.878Z,24.69
2018-08-08T08:42:39.481Z,24.90
2018-08-08T08:45:08.108Z,25.16
2018-08-08T08:47:36.552Z,25.07
2018-08-08T08:50:05.667Z,25.18
2018-08-08T08:52:34.052Z,25.04
2018-08-08T08:55:02.477Z,25.03
2018-08-08T08:57:30.945Z,25.02
2018-08-08T08:59:59.332Z,25.06
2018-08-08T09:02:27.790Z,25.05
2018-08-08T09:04:56.213Z,25.31
2018-08-08T09:07:24.642Z,25.12
2018-08-08T09:09:53.101Z,25.14
2018-08-08T09:12:38.581Z,25.10
2018-08-08T09:15:08.750Z,25.35
2018-08-08T09:17:37.173Z,25.68
2018-08-08T09:20:05.991Z,25.85
2018-08-08T09:22:34.699Z,25.66
2018-08-08T09:25:03.180Z,25.94
2018-08-08T09:27:31.566Z,26.44
2018-08-08T09:30:10.766Z,26.07
2018-08-08T09:32:40.689Z,25.87
2018-08-08T09:35:09.366Z,26.06
2018-08-08T09:37:38.299Z,25.77
2018-08-08T09:40:07.192Z,26.08
2018-08-08T09:42:35.726Z,25.97
2018-08-08T09:45:04.826Z,25.80
2018-08-08T09:47:33.313Z,25.97
2018-08-08T09:50:01.715Z,26.20
2018-08-08T09:52:30.142Z,26.12
2018-08-08T09:54:58.585Z,26.10
2018-08-08T09:57:27.018Z,25.86
2018-08-08T09:59:55.469Z,25.94
2018-08-08T10:02:29.228Z,25.83
2018-08-08T10:05:07.500Z,25.76
2018-08-08T10:07:35.921Z,26.20
2018-08-08T10:10:04.484Z,26.03
2018-08-08T10:12:32.905Z,26.36
2018-08-08T10:15:01.349Z,26.24
2018-08-08T10:17:29.772Z,26.37
2018-08-08T10:19:58.221Z,26.29
2018-08-08T10:22:26.645Z,26.11
2018-08-08T10:24:55.137Z,26.16
2018-08-08T10:27:23.525Z,26.15
2018-08-08T10:29:51.970Z,26.03
2018-08-08T10:32:20.373Z,25.80
2018-08-08T10:34:48.797Z,25.93
2018-08-08T10:37:17.271Z,26.29
2018-08-08T10:39:45.802Z,26.83
2018-08-08T10:42:14.215Z,27.03
2018-08-08T10:44:42.707Z,27.29
2018-08-08T10:47:11.079Z,27.21
2018-08-08T10:49:39.496Z,26.68
2018-08-08T10:52:08.224Z,26.60
2018-08-08T10:54:36.658Z,26.28
2018-08-08T10:57:05.122Z,26.46
2018-08-08T10:59:33.585Z,26.75
2018-08-08T11:02:01.980Z,26.48
2018-08-08T11:04:30.376Z,26.66
2018-08-08T11:06:58.829Z,26.68
2018-08-08T11:09:27.261Z,27.12
2018-08-08T11:11:55.735Z,27.25
2018-08-08T11:14:24.138Z,27.50
2018-08-08T11:16:52.577Z,27.89
2018-08-08T11:19:20.956Z,27.65
2018-08-08T11:21:49.472Z,27.62
2018-08-08T11:24:17.861Z,27.72
2018-08-08T11:26:46.326Z,26.90
2018-08-08T11:29:14.698Z,26.66
2018-08-08T11:31:43.140Z,26.82
2018-08-08T11:34:11.581Z,26.81
2018-08-08T11:36:39.980Z,27.33
2018-08-08T11:39:10.058Z,27.04
2018-08-08T11:41:39.086Z,27.61
2018-08-08T11:44:07.756Z,26.79
2018-08-08T11:46:36.260Z,26.57
2018-08-08T11:49:04.669Z,26.42
2018-08-08T11:51:33.176Z,26.36
2018-08-08T11:54:01.637Z,26.68
2018-08-08T11:56:30.069Z,26.52
2018-08-08T11:58:58.501Z,26.92
2018-08-08T12:01:27.434Z,26.41
2018-08-08T12:03:55.916Z,26.90
2018-08-08T12:06:24.453Z,26.55
2018-08-08T12:08:52.957Z,26.49
2018-08-08T12:11:21.493Z,26.77
2018-08-08T12:13:49.895Z,26.61
2018-08-08T12:16:18.506Z,26.25
2018-08-08T12:18:46.962Z,26.62
2018-08-08T12:21:15.421Z,27.19
2018-08-08T12:23:43.871Z,26.58
2018-08-08T12:26:12.291Z,27.15
2018-08-08T12:28:40.770Z,27.09
2018-08-08T12:31:09.166Z,26.81
2018-08-08T12:33:37.557Z,27.60
2018-08-08T12:36:06.066Z,27.53
2018-08-08T12:38:34.520Z,27.18
2018-08-08T12:41:02.937Z,26.82
2018-08-08T12:43:31.362Z,27.46
2018-08-08T12:45:59.826Z,27.66
2018-08-08T12:48:28.261Z,27.56
2018-08-08T12:50:56.808Z,28.00
2018-08-08T12:53:25.275Z,27.50
2018-08-08T12:55:53.723Z,27.69
2018-08-08T12:58:22.136Z,27.62
2018-08-08T13:00:50.738Z,28.06
2018-08-08T13:03:19.165Z,28.45
2018-08-08T13:05:47.541Z,28.17
2018-08-08T13:08:15.970Z,28.65
2018-08-08T13:10:44.399Z,28.96
2018-08-08T13:13:12.878Z,29.07
2018-08-08T13:15:41.309Z,29.12
2018-08-08T13:18:09.789Z,28.61
2018-08-08T13:20:38.244Z,27.57
2018-08-08T13:23:06.745Z,27.50
2018-08-08T13:25:35.160Z,27.67
2018-08-08T13:28:03.594Z,27.85
2018-08-08T13:30:32.001Z,27.42
2018-08-08T13:33:00.469Z,27.22
2018-08-08T13:35:28.842Z,26.93
2018-08-08T13:37:57.298Z,27.33
2018-08-08T13:40:25.713Z,27.23
2018-08-08T13:42:54.152Z,26.95
2018-08-08T13:45:23.647Z,27.50
2018-08-08T13:47:52.112Z,27.38
2018-08-08T13:50:20.662Z,28.25
2018-08-08T13:52:49.105Z,29.24
2018-08-08T13:55:17.867Z,29.44
2018-08-08T13:57:46.362Z,29.90
2018-08-08T14:00:16.867Z,29.99
2018-08-08T14:02:45.500Z,28.94
2018-08-08T14:05:13.937Z,28.15
2018-08-08T14:07:42.736Z,28.12
2018-08-08T14:10:11.239Z,27.33
2018-08-08T14:12:39.710Z,26.90
2018-08-08T14:15:08.201Z,26.79
2018-08-08T14:17:36.627Z,27.08
2018-08-08T14:20:06.048Z,27.01
2018-08-08T14:22:34.448Z,26.85
2018-08-08T14:25:02.919Z,26.60
2018-08-08T14:27:31.293Z,26.99
2018-08-08T14:29:59.778Z,27.75
2018-08-08T14:32:28.197Z,27.98
2018-08-08T14:34:56.613Z,26.97
2018-08-08T14:37:25.040Z,26.65
2018-08-08T14:39:53.561Z,26.88
2018-08-08T14:42:23.024Z,26.68
2018-08-08T14:47:28.298Z,27.38
2018-08-08T14:49:56.755Z,27.31
2018-08-08T14:52:25.195Z,27.24
2018-08-08T14:54:53.638Z,27.45
2018-08-08T14:57:22.122Z,28.39
2018-08-08T14:59:50.532Z,28.49
2018-08-08T15:02:19.091Z,28.87
2018-08-08T15:04:47.525Z,29.17
2018-08-08T15:07:15.973Z,29.89
2018-08-08T15:09:44.417Z,28.92
2018-08-08T15:12:12.893Z,27.80
2018-08-08T15:14:41.349Z,27.95
2018-08-08T15:17:09.864Z,28.61
2018-08-08T15:19:38.512Z,30.17
2018-08-08T15:22:06.991Z,28.45
2018-08-08T15:24:42.228Z,28.74
2018-08-08T15:27:10.858Z,29.34
2018-08-08T15:29:39.298Z,29.00
2018-08-08T15:32:07.860Z,29.03
2018-08-08T15:34:36.305Z,30.00
2018-08-08T15:37:04.809Z,30.45
2018-08-08T15:39:33.198Z,30.54
2018-08-08T15:42:01.649Z,30.09
2018-08-08T15:44:30.167Z,29.69
2018-08-08T15:46:58.573Z,30.69
2018-08-08T15:49:27.043Z,29.63
2018-08-08T15:51:55.473Z,30.53
2018-08-08T15:54:24.088Z,29.52
2018-08-08T15:56:52.526Z,29.24
2018-08-08T15:59:20.958Z,29.49
2018-08-08T16:02:02.134Z,29.04
2018-08-08T16:04:30.594Z,28.08
2018-08-08T16:06:58.993Z,27.75
2018-08-08T16:09:27.437Z,27.54
2018-08-08T16:11:55.861Z,27.73
2018-08-08T16:14:26.577Z,28.62
2018-08-08T16:16:59.197Z,29.60
2018-08-08T16:19:27.711Z,31.25
2018-08-08T16:21:56.152Z,31.14
2018-08-08T16:24:24.585Z,30.04
2018-08-08T16:26:52.982Z,29.59
2018-08-08T16:29:21.392Z,28.65
2018-08-08T16:31:49.838Z,28.67
2018-08-08T16:34:18.350Z,28.47
2018-08-08T16:36:46.883Z,29.07
2018-08-08T16:39:15.369Z,29.49
2018-08-08T16:41:43.771Z,29.28
2018-08-08T16:44:12.229Z,27.86
2018-08-08T16:46:40.656Z,27.64
2018-08-08T16:49:09.130Z,27.54
2018-08-08T16:51:37.620Z,27.40
2018-08-08T16:54:06.194Z,26.70
2018-08-08T16:56:34.660Z,27.58
2018-08-08T16:59:03.085Z,27.73
2018-08-08T17:01:31.647Z,28.72
2018-08-08T17:04:00.090Z,27.88
2018-08-08T17:06:28.568Z,28.46
2018-08-08T17:08:56.979Z,28.18
2018-08-08T17:11:25.405Z,27.35
2018-08-08T17:13:53.874Z,26.88
2018-08-08T17:16:22.337Z,26.58
2018-08-08T17:18:50.882Z,26.39
2018-08-08T17:21:27.682Z,26.24
2018-08-08T17:24:00.671Z,26.41
2018-08-08T17:26:29.192Z,26.28
2018-08-08T17:28:57.625Z,26.21
2018-08-08T17:31:28.302Z,26.25
2018-08-08T17:33:56.801Z,26.31
2018-08-08T17:36:25.282Z,26.14
2018-08-08T17:38:53.791Z,25.99
2018-08-08T17:41:22.430Z,26.17
2018-08-08T17:43:55.145Z,26.01
2018-08-08T17:46:23.455Z,25.97
2018-08-08T17:48:52.029Z,25.80
2018-08-08T17:51:20.417Z,25.82
2018-08-08T17:53:48.878Z,25.74
2018-08-08T17:56:17.330Z,25.60
2018-08-08T17:58:45.844Z,25.50
2018-08-08T18:01:14.317Z,25.33
2018-08-08T18:03:42.800Z,25.24
2018-08-08T18:06:11.237Z,25.16
2018-08-08T18:08:39.794Z,25.25
2018-08-08T18:11:08.264Z,24.91
2018-08-08T18:13:36.726Z,24.99
2018-08-08T18:16:05.157Z,24.99
2018-08-08T18:18:33.643Z,25.36
2018-08-08T18:21:02.170Z,25.41
2018-08-08T18:23:30.542Z,25.70
2018-08-08T18:25:58.968Z,25.49
2018-08-08T18:28:27.441Z,25.03
2018-08-08T18:30:55.841Z,24.61
2018-08-08T18:33:24.261Z,24.65
2018-08-08T18:35:52.717Z,24.40
2018-08-08T18:38:28.342Z,24.34
2018-08-08T18:40:58.777Z,24.12
2018-08-08T18:43:27.242Z,24.06
2018-08-08T18:45:55.662Z,23.94
2018-08-08T18:48:24.119Z,23.82
2018-08-08T18:50:52.591Z,23.70
2018-08-08T18:53:21.018Z,23.74
2018-08-08T18:55:50.129Z,23.62
2018-08-08T18:58:18.545Z,23.54
2018-08-08T19:00:53.490Z,23.45
2018-08-08T19:03:22.010Z,23.37
2018-08-08T19:05:50.433Z,23.25
2018-08-08T19:08:18.853Z,23.22
2018-08-08T19:10:47.255Z,23.12
2018-08-08T19:13:15.714Z,23.08
2018-08-08T19:15:44.386Z,22.94
2018-08-08T19:18:19.443Z,22.75
2018-08-08T19:20:47.846Z,22.70
2018-08-08T19:23:16.292Z,22.71
2018-08-08T19:25:44.735Z,22.64
2018-08-08T19:28:13.271Z,22.57
2018-08-08T19:30:41.718Z,22.48
2018-08-08T19:33:10.154Z,22.52
2018-08-08T19:35:38.574Z,22.46
2018-08-08T19:38:10.215Z,22.42
2018-08-08T19:40:38.712Z,22.46
2018-08-08T19:43:07.178Z,22.39
2018-08-08T19:45:35.617Z,22.38
2018-08-08T19:48:04.116Z,22.32
2018-08-08T19:50:32.611Z,22.29
2018-08-08T19:53:01.122Z,22.34
2018-08-08T19:55:30.634Z,22.30
2018-08-08T19:57:59.087Z,22.27
2018-08-08T20:00:27.517Z,22.11
2018-08-08T20:02:55.993Z,22.02
2018-08-08T20:05:24.425Z,21.97
2018-08-08T20:07:52.888Z,21.88
2018-08-08T20:10:21.314Z,21.90
2018-08-08T20:12:49.774Z,21.93
2018-08-08T20:15:18.220Z,21.87
2018-08-08T20:17:46.661Z,21.89
2018-08-08T20:20:15.173Z,21.91
2018-08-08T20:22:43.881Z,21.90
2018-08-08T20:25:12.336Z,21.82
2018-08-08T20:27:40.790Z,21.80
2018-08-08T20:30:09.319Z,21.80
2018-08-08T20:32:37.720Z,21.77
2018-08-08T20:35:06.161Z,21.63
2018-08-08T20:37:34.622Z,21.64
2018-08-08T20:40:03.070Z,21.60
2018-08-08T20:42:31.507Z,21.61
2018-08-08T20:44:59.966Z,21.58
2018-08-08T20:47:28.350Z,21.50
2018-08-08T20:49:56.826Z,21.38
2018-08-08T20:52:25.272Z,21.33
2018-08-08T20:54:53.737Z,21.28
2018-08-08T20:57:22.184Z,21.21
2018-08-08T20:59:50.888Z,21.19
2018-08-08T21:02:19.294Z,21.09
2018-08-08T21:04:47.714Z,21.00
2018-08-08T21:07:16.161Z,20.95
2018-08-08T21:09:44.610Z,20.96
2018-08-08T21:12:13.012Z,20.81
2018-08-08T21:14:41.403Z,20.83
2018-08-08T21:17:09.801Z,20.87
2018-08-08T21:19:38.243Z,20.83
2018-08-08T21:22:06.785Z,20.71
2018-08-08T21:24:35.245Z,20.76
2018-08-08T21:27:03.652Z,20.81
2018-08-08T21:29:32.080Z,20.89
2018-08-08T21:32:00.488Z,20.81
2018-08-08T21:34:28.895Z,20.71
2018-08-08T21:36:57.567Z,20.53
2018-08-08T21:39:26.025Z,20.44
2018-08-08T21:41:54.430Z,20.38
2018-08-08T21:44:22.883Z,20.12
2018-08-08T21:46:51.300Z,20.11
2018-08-08T21:49:19.721Z,20.07
2018-08-08T21:51:48.321Z,19.91
2018-08-08T21:54:28.004Z,20.03
2018-08-08T21:57:07.645Z,20.01
2018-08-08T21:59:47.469Z,20.03
2018-08-08T22:02:27.175Z,20.01
2018-08-08T22:05:06.765Z,19.87
2018-08-08T22:08:45.099Z,19.79
2018-08-08T22:11:24.656Z,19.72
2018-08-08T22:14:04.210Z,19.57
2018-08-08T22:16:43.981Z,19.49
2018-08-08T22:19:26.437Z,19.59
2018-08-08T22:21:55.292Z,19.46
2018-08-08T22:24:24.337Z,19.33
2018-08-08T22:26:52.838Z,19.16
2018-08-08T22:29:21.278Z,19.13
2018-08-08T22:31:49.745Z,19.10
2018-08-08T22:34:18.205Z,19.02
2018-08-08T22:36:46.634Z,18.97
2018-08-08T22:39:16.457Z,18.97
2018-08-08T22:41:45.188Z,19.05
2018-08-08T22:44:14.184Z,18.88
2018-08-08T22:46:42.608Z,18.85
2018-08-08T22:49:11.347Z,18.79
2018-08-08T22:51:39.797Z,18.85
2018-08-08T22:54:08.401Z,18.93
2018-08-08T22:56:36.845Z,18.89
2018-08-08T22:59:05.348Z,18.98
2018-08-08T23:01:33.826Z,19.02
2018-08-08T23:04:02.245Z,19.06
2018-08-08T23:06:31.677Z,19.01
2018-08-08T23:09:00.086Z,18.92
2018-08-08T23:11:28.502Z,18.86
2018-08-08T23:13:56.889Z,18.67
2018-08-08T23:16:25.293Z,18.68
2018-08-08T23:18:54.030Z,18.62
2018-08-08T23:21:22.473Z,18.46
2018-08-08T23:23:50.873Z,18.35
2018-08-08T23:26:19.336Z,18.32
2018-08-08T23:28:47.756Z,18.33
2018-08-08T23:31:16.154Z,18.47
2018-08-08T23:33:44.540Z,18.53
2018-08-08T23:36:13.022Z,18.53
2018-08-08T23:38:41.518Z,18.52
2018-08-08T23:41:10.017Z,18.53
2018-08-08T23:43:38.452Z,18.54
2018-08-08T23:46:06.913Z,18.49
2018-08-08T23:48:35.316Z,18.45
2018-08-08T23:51:03.698Z,18.34
2018-08-08T23:53:32.078Z,18.39
2018-08-08T23:56:00.528Z,18.38
2018-08-08T23:58:28.937Z,18.39
